Robert IV — WDC3892 — position and weather

sailwx.info

Track history (hours):
 
Tides and Currents Weather Stations Pressure Air Temp Water Temp Dewpoint Dewpoint Depression Visibility Wind Speed Wind Dir Waves Ship Positions

Robert IV

Owner: HENRY MARINE SERVICE INC, STATEN ISLAND, NY. More information available from US FCC via Universal Licensing System and Coast Guard Vessel Documentation Center.

Last reported at 2018-Jun-22 22:08 UTC. Time now 2018-Jun-23 23:44 UTC.
Position N 40°39' W 074°09'.

Type: Tug. MMSI: 367015880.

Date/timePositionNaut miles runAvg speedWind from/ knotsBaromVisibWave heightAir tempDewpointWater temp
2018-Jun-22 22:08N 40°39' W 074°09'2 0.3
2018-Jun-22 17:47N 40°39' W 074°07'2 2.4
2018-Jun-22 16:52N 40°38' W 074°10'1 2.7
2018-Jun-22 16:29N 40°39' W 074°08'3 5.6
2018-Jun-22 16:00N 40°39' W 074°05'3 5.3
2018-Jun-22 15:31N 40°41' W 074°02'3 6.1
2018-Jun-22 15:00N 40°43' W 073°59'3 0.3
2018-Jun-22 04:41N 40°45' W 073°57'1 7.9
2018-Jun-22 04:30N 40°44' W 073°58'3 6.8
2018-Jun-22 04:00N 40°41' W 074°01'3 6.4
2018-Jun-22 03:31N 40°40' W 074°04'3 6.4
2018-Jun-22 03:00N 40°39' W 074°08'1 0.9
2018-Jun-22 02:23N 40°39' W 074°09'2 3.2
2018-Jun-22 01:54N 40°39' W 074°07'1 3.6
2018-Jun-22 01:30N 40°39' W 074°05'3 5.2
2018-Jun-22 01:00N 40°41' W 074°02'4 6.6
2018-Jun-22 00:28N 40°43' W 073°59'3 0.8
2018-Jun-21 20:57N 40°45' W 073°57'4 7.9
2018-Jun-21 20:30N 40°42' W 073°59'4 8.1
2018-Jun-21 20:00N 40°40' W 074°04'3 0.6
2018-Jun-21 14:37N 40°38' W 074°07'0 0.0
2018-Jun-21 14:24N 40°38' W 074°07'0 0.0
2018-Jun-21 13:56N 40°38' W 074°07'0 0.0
2018-Jun-21 00:53N 40°39' W 074°07'1 1.4
2018-Jun-20 23:54N 40°38' W 074°09'2 5.6
2018-Jun-20 23:28N 40°39' W 074°06'3 5.8
2018-Jun-20 23:01N 40°40' W 074°03'4 7.8
2018-Jun-20 22:30N 40°43' W 073°59'3 0.1
2018-Jun-19 15:17N 40°46' W 073°57'2 8.8
2018-Jun-19 15:01N 40°44' W 073°58'4 8.0
2018-Jun-19 14:30N 40°40' W 074°01'3 1.2
2018-Jun-19 12:11N 40°39' W 074°05'2 7.7
2018-Jun-19 11:54N 40°39' W 074°07'1 1.5
2018-Jun-19 11:10N 40°39' W 074°09'1 3.9
2018-Jun-19 10:56N 40°39' W 074°08'2 3.9
2018-Jun-19 10:29N 40°39' W 074°05'2 4.8
2018-Jun-19 10:00N 40°40' W 074°03'3 6.9
2018-Jun-19 09:30N 40°42' W 073°59'4 7.1
2018-Jun-19 09:00N 40°46' W 073°57'0 0.0
2018-Jun-19 01:54N 40°46' W 073°57'3 8.6
2018-Jun-19 01:30N 40°42' W 073°59'3 5.4
2018-Jun-19 01:00N 40°44' W 074°01'2 0.1
2018-Jun-18 04:03N 40°46' W 074°00'1 9.8
2018-Jun-18 03:58N 40°46' W 074°01'4 9.3
2018-Jun-18 03:30N 40°41' W 074°02'4 7.5
2018-Jun-18 02:59N 40°39' W 074°06'1 0.4
2018-Jun-18 00:23N 40°39' W 074°07'0 0.1
2018-Jun-17 23:58N 40°39' W 074°07'0 0.0
2018-Jun-17 23:26N 40°39' W 074°07'0 0.0
2018-Jun-17 22:56N 40°39' W 074°07'3 6.3
2018-Jun-17 22:30N 40°40' W 074°04'4 7.1
2018-Jun-17 22:00N 40°42' W 074°00'4 8.4
2018-Jun-17 21:29N 40°46' W 073°57'0 0.0
2018-Jun-17 02:17N 40°46' W 073°57'3 9.6
2018-Jun-17 02:00N 40°43' W 073°58'4 8.7
2018-Jun-17 01:30N 40°40' W 074°03'4 1.6
2018-Jun-16 23:07N 40°39' W 074°07'0 0.0
2018-Jun-16 22:49N 40°39' W 074°07'0 0.0
2018-Jun-16 22:23N 40°39' W 074°07'0 0.1
2018-Jun-16 21:51N 40°39' W 074°07'1 0.8
2018-Jun-16 20:11N 40°39' W 074°09'0 1.5
2018-Jun-16 19:59N 40°39' W 074°09'0 0.4
2018-Jun-16 19:10N 40°39' W 074°09'1 4.8
2018-Jun-16 18:59N 40°39' W 074°08'2 5.0
2018-Jun-16 18:30N 40°39' W 074°05'3 6.9
2018-Jun-16 18:00N 40°41' W 074°01'4 7.7
2018-Jun-16 17:30N 40°44' W 073°58'2 0.1
2018-Jun-15 22:10N 40°46' W 073°57'0 2.7
2018-Jun-15 21:59N 40°45' W 073°57'2 4.0
2018-Jun-15 21:30N 40°44' W 073°58'2 4.4
2018-Jun-15 21:00N 40°42' W 074°00'2 4.9
2018-Jun-15 20:30N 40°40' W 074°02'3 5.7
2018-Jun-15 19:59N 40°39' W 074°06'3 3.3
2018-Jun-15 19:10N 40°38' W 074°09'1 5.6
2018-Jun-15 19:00N 40°39' W 074°08'1 1.3
2018-Jun-15 18:30N 40°39' W 074°07'0 0.0
2018-Jun-15 18:00N 40°39' W 074°07'0 0.0
2018-Jun-15 17:27N 40°39' W 074°07'0 0.0
2018-Jun-15 16:58N 40°39' W 074°07'0 0.0
2018-Jun-15 16:23N 40°39' W 074°07'0 0.0
2018-Jun-15 15:59N 40°39' W 074°07'0 0.0
2018-Jun-15 15:29N 40°39' W 074°07'0 0.0
2018-Jun-15 15:00N 40°39' W 074°07'0 0.0
2018-Jun-15 14:23N 40°39' W 074°07'0 0.0
2018-Jun-15 13:55N 40°39' W 074°07'0 0.0
2018-Jun-15 13:24N 40°39' W 074°07'0 0.0
2018-Jun-15 13:00N 40°39' W 074°07'0 0.0
2018-Jun-15 12:28N 40°39' W 074°07'1 2.3
2018-Jun-15 12:00N 40°38' W 074°09'0 0.3
2018-Jun-15 11:30N 40°38' W 074°09'2 4.6
2018-Jun-15 11:00N 40°39' W 074°06'2 5.0
2018-Jun-15 10:30N 40°40' W 074°03'2 4.9
2018-Jun-15 10:00N 40°42' W 074°00'2 4.6
2018-Jun-15 09:30N 40°43' W 073°58'3 0.2
2018-Jun-14 22:27N 40°46' W 073°57'4 8.9
2018-Jun-14 22:00N 40°42' W 073°59'4 7.8
2018-Jun-14 21:30N 40°40' W 074°03'3 5.3
2018-Jun-14 21:00N 40°39' W 074°07'1 1.1
2018-Jun-14 20:30N 40°38' W 074°07'0 0.0
2018-Jun-14 17:03N 40°38' W 074°07'0 0.1
2018-Jun-14 15:56N 40°39' W 074°07'1 2.5
2018-Jun-14 15:29N 40°38' W 074°09'3 6.5
2018-Jun-14 15:00N 40°39' W 074°05'3 7.1
2018-Jun-14 14:30N 40°41' W 074°01'3 6.3
2018-Jun-14 14:00N 40°43' W 073°58'3 0.1
2018-Jun-13 20:30N 40°46' W 073°57'2 4.9
2018-Jun-13 20:00N 40°44' W 073°58'2 3.6
2018-Jun-13 19:30N 40°42' W 073°60'2 3.4
2018-Jun-13 19:00N 40°41' W 074°01'2 3.2
2018-Jun-13 18:30N 40°40' W 074°03'1 2.6
2018-Jun-13 18:00N 40°39' W 074°04'3 4.8
2018-Jun-13 17:27N 40°39' W 074°08'  
Track history (hours):
 
Tides and Currents Weather Stations Pressure Air Temp Water Temp Dewpoint Dewpoint Depression Visibility Wind Speed Wind Dir Waves Ship Positions

Robert IV

Owner: HENRY MARINE SERVICE INC, STATEN ISLAND, NY. More information available from US FCC via Universal Licensing System and Coast Guard Vessel Documentation Center.

Last reported at 2018-Jun-22 22:08 UTC. Time now 2018-Jun-23 23:44 UTC.
Position N 40°39' W 074°09'.

Type: Tug. MMSI: 367015880.

Date/timePositionNaut miles runAvg speedWind from/ knotsBaromVisibWave heightAir tempDewpointWater temp
2018-Jun-22 22:08N 40°39' W 074°09'2 0.3
2018-Jun-22 17:47N 40°39' W 074°07'2 2.4
2018-Jun-22 16:52N 40°38' W 074°10'1 2.7
2018-Jun-22 16:29N 40°39' W 074°08'3 5.6
2018-Jun-22 16:00N 40°39' W 074°05'3 5.3
2018-Jun-22 15:31N 40°41' W 074°02'3 6.1
2018-Jun-22 15:00N 40°43' W 073°59'3 0.3
2018-Jun-22 04:41N 40°45' W 073°57'1 7.9
2018-Jun-22 04:30N 40°44' W 073°58'3 6.8
2018-Jun-22 04:00N 40°41' W 074°01'3 6.4
2018-Jun-22 03:31N 40°40' W 074°04'3 6.4
2018-Jun-22 03:00N 40°39' W 074°08'1 0.9
2018-Jun-22 02:23N 40°39' W 074°09'2 3.2
2018-Jun-22 01:54N 40°39' W 074°07'1 3.6
2018-Jun-22 01:30N 40°39' W 074°05'3 5.2
2018-Jun-22 01:00N 40°41' W 074°02'4 6.6
2018-Jun-22 00:28N 40°43' W 073°59'3 0.8
2018-Jun-21 20:57N 40°45' W 073°57'4 7.9
2018-Jun-21 20:30N 40°42' W 073°59'4 8.1
2018-Jun-21 20:00N 40°40' W 074°04'3 0.6
2018-Jun-21 14:37N 40°38' W 074°07'0 0.0
2018-Jun-21 14:24N 40°38' W 074°07'0 0.0
2018-Jun-21 13:56N 40°38' W 074°07'0 0.0
2018-Jun-21 00:53N 40°39' W 074°07'1 1.4
2018-Jun-20 23:54N 40°38' W 074°09'2 5.6
2018-Jun-20 23:28N 40°39' W 074°06'3 5.8
2018-Jun-20 23:01N 40°40' W 074°03'4 7.8
2018-Jun-20 22:30N 40°43' W 073°59'3 0.1
2018-Jun-19 15:17N 40°46' W 073°57'2 8.8
2018-Jun-19 15:01N 40°44' W 073°58'4 8.0
2018-Jun-19 14:30N 40°40' W 074°01'3 1.2
2018-Jun-19 12:11N 40°39' W 074°05'2 7.7
2018-Jun-19 11:54N 40°39' W 074°07'1 1.5
2018-Jun-19 11:10N 40°39' W 074°09'1 3.9
2018-Jun-19 10:56N 40°39' W 074°08'2 3.9
2018-Jun-19 10:29N 40°39' W 074°05'2 4.8
2018-Jun-19 10:00N 40°40' W 074°03'3 6.9
2018-Jun-19 09:30N 40°42' W 073°59'4 7.1
2018-Jun-19 09:00N 40°46' W 073°57'0 0.0
2018-Jun-19 01:54N 40°46' W 073°57'3 8.6
2018-Jun-19 01:30N 40°42' W 073°59'3 5.4
2018-Jun-19 01:00N 40°44' W 074°01'2 0.1
2018-Jun-18 04:03N 40°46' W 074°00'1 9.8
2018-Jun-18 03:58N 40°46' W 074°01'4 9.3
2018-Jun-18 03:30N 40°41' W 074°02'4 7.5
2018-Jun-18 02:59N 40°39' W 074°06'1 0.4
2018-Jun-18 00:23N 40°39' W 074°07'0 0.1
2018-Jun-17 23:58N 40°39' W 074°07'0 0.0
2018-Jun-17 23:26N 40°39' W 074°07'0 0.0
2018-Jun-17 22:56N 40°39' W 074°07'3 6.3
2018-Jun-17 22:30N 40°40' W 074°04'4 7.1
2018-Jun-17 22:00N 40°42' W 074°00'4 8.4
2018-Jun-17 21:29N 40°46' W 073°57'0 0.0
2018-Jun-17 02:17N 40°46' W 073°57'3 9.6
2018-Jun-17 02:00N 40°43' W 073°58'4 8.7
2018-Jun-17 01:30N 40°40' W 074°03'4 1.6
2018-Jun-16 23:07N 40°39' W 074°07'0 0.0
2018-Jun-16 22:49N 40°39' W 074°07'0 0.0
2018-Jun-16 22:23N 40°39' W 074°07'0 0.1
2018-Jun-16 21:51N 40°39' W 074°07'1 0.8
2018-Jun-16 20:11N 40°39' W 074°09'0 1.5
2018-Jun-16 19:59N 40°39' W 074°09'0 0.4
2018-Jun-16 19:10N 40°39' W 074°09'1 4.8
2018-Jun-16 18:59N 40°39' W 074°08'2 5.0
2018-Jun-16 18:30N 40°39' W 074°05'3 6.9
2018-Jun-16 18:00N 40°41' W 074°01'4 7.7
2018-Jun-16 17:30N 40°44' W 073°58'2 0.1
2018-Jun-15 22:10N 40°46' W 073°57'0 2.7
2018-Jun-15 21:59N 40°45' W 073°57'2 4.0
2018-Jun-15 21:30N 40°44' W 073°58'2 4.4
2018-Jun-15 21:00N 40°42' W 074°00'2 4.9
2018-Jun-15 20:30N 40°40' W 074°02'3 5.7
2018-Jun-15 19:59N 40°39' W 074°06'3 3.3
2018-Jun-15 19:10N 40°38' W 074°09'1 5.6
2018-Jun-15 19:00N 40°39' W 074°08'1 1.3
2018-Jun-15 18:30N 40°39' W 074°07'0 0.0
2018-Jun-15 18:00N 40°39' W 074°07'0 0.0
2018-Jun-15 17:27N 40°39' W 074°07'0 0.0
2018-Jun-15 16:58N 40°39' W 074°07'0 0.0
2018-Jun-15 16:23N 40°39' W 074°07'0 0.0
2018-Jun-15 15:59N 40°39' W 074°07'0 0.0
2018-Jun-15 15:29N 40°39' W 074°07'0 0.0
2018-Jun-15 15:00N 40°39' W 074°07'0 0.0
2018-Jun-15 14:23N 40°39' W 074°07'0 0.0
2018-Jun-15 13:55N 40°39' W 074°07'0 0.0
2018-Jun-15 13:24N 40°39' W 074°07'0 0.0
2018-Jun-15 13:00N 40°39' W 074°07'0 0.0
2018-Jun-15 12:28N 40°39' W 074°07'1 2.3
2018-Jun-15 12:00N 40°38' W 074°09'0 0.3
2018-Jun-15 11:30N 40°38' W 074°09'2 4.6
2018-Jun-15 11:00N 40°39' W 074°06'2 5.0
2018-Jun-15 10:30N 40°40' W 074°03'2 4.9
2018-Jun-15 10:00N 40°42' W 074°00'2 4.6
2018-Jun-15 09:30N 40°43' W 073°58'3 0.2
2018-Jun-14 22:27N 40°46' W 073°57'4 8.9
2018-Jun-14 22:00N 40°42' W 073°59'4 7.8
2018-Jun-14 21:30N 40°40' W 074°03'3 5.3
2018-Jun-14 21:00N 40°39' W 074°07'1 1.1
2018-Jun-14 20:30N 40°38' W 074°07'0 0.0
2018-Jun-14 17:03N 40°38' W 074°07'0 0.1
2018-Jun-14 15:56N 40°39' W 074°07'1 2.5
2018-Jun-14 15:29N 40°38' W 074°09'3 6.5
2018-Jun-14 15:00N 40°39' W 074°05'3 7.1
2018-Jun-14 14:30N 40°41' W 074°01'3 6.3
2018-Jun-14 14:00N 40°43' W 073°58'3 0.1
2018-Jun-13 20:30N 40°46' W 073°57'2 4.9
2018-Jun-13 20:00N 40°44' W 073°58'2 3.6
2018-Jun-13 19:30N 40°42' W 073°60'2 3.4
2018-Jun-13 19:00N 40°41' W 074°01'2 3.2
2018-Jun-13 18:30N 40°40' W 074°03'1 2.6
2018-Jun-13 18:00N 40°39' W 074°04'3 4.8
2018-Jun-13 17:27N 40°39' W 074°08'  

Dump ship's entire track history